createdAt,value
2019-04-14T00:01:41.267Z,102679.70
2019-04-14T00:04:22.642Z,102659.80
2019-04-14T00:06:54.760Z,102658.97
2019-04-14T00:09:27.228Z,102642.54
2019-04-14T00:11:59.069Z,102644.33
2019-04-14T00:14:31.492Z,102644.38
2019-04-14T00:17:02.793Z,102643.05
2019-04-14T00:19:39.152Z,102642.17
2019-04-14T00:22:11.663Z,102634.21
2019-04-14T00:24:44.563Z,102652.34
2019-04-14T00:27:17.172Z,102644.33
2019-04-14T00:29:48.600Z,102639.47
2019-04-14T00:32:20.520Z,102641.21
2019-04-14T00:35:14.654Z,102639.46
2019-04-14T00:38:08.471Z,102645.70
2019-04-14T00:40:45.497Z,102659.84
2019-04-14T00:43:30.980Z,102636.81
2019-04-14T00:46:08.009Z,102637.28
2019-04-14T00:48:39.493Z,102639.53
2019-04-14T00:51:11.293Z,102638.60
2019-04-14T00:53:44.597Z,102638.15
2019-04-14T00:56:17.219Z,102631.10
2019-04-14T00:58:49.752Z,102636.41
2019-04-14T01:01:21.935Z,102630.69
2019-04-14T01:03:54.789Z,102636.02
2019-04-14T01:06:27.319Z,102633.35
2019-04-14T01:08:59.975Z,102642.59
2019-04-14T01:11:34.072Z,102644.77
2019-04-14T01:14:06.581Z,102646.89
2019-04-14T01:16:38.611Z,102657.92
2019-04-14T01:19:11.246Z,102667.20
2019-04-14T01:21:43.620Z,102670.34
2019-04-14T01:24:16.845Z,102662.44
2019-04-14T01:26:48.545Z,102660.36
2019-04-14T01:29:20.974Z,102655.91
2019-04-14T01:31:53.553Z,102656.34
2019-04-14T01:34:26.050Z,102652.41
2019-04-14T01:36:58.680Z,102646.23
2019-04-14T01:39:31.147Z,102646.73
2019-04-14T01:42:03.082Z,102638.30
2019-04-14T01:44:35.394Z,102638.81
2019-04-14T01:47:07.367Z,102637.94
2019-04-14T01:49:39.724Z,102624.23
2019-04-14T01:52:34.135Z,102626.40
2019-04-14T01:55:42.571Z,102631.25
2019-04-14T01:58:16.938Z,102629.87
2019-04-14T02:00:55.465Z,102637.39
2019-04-14T02:03:28.096Z,102636.06
2019-04-14T02:06:00.362Z,102640.10
2019-04-14T02:08:32.910Z,102637.91
2019-04-14T02:11:05.226Z,102637.91
2019-04-14T02:13:37.537Z,102641.09
2019-04-14T02:16:18.541Z,102640.64
2019-04-14T02:18:42.993Z,102641.93
2019-04-14T02:21:15.035Z,102642.38
2019-04-14T02:23:47.528Z,102650.35
2019-04-14T02:26:22.040Z,102645.95
2019-04-14T02:28:54.986Z,102643.26
2019-04-14T02:31:56.226Z,102637.07
2019-04-14T02:34:34.740Z,102630.88
2019-04-14T02:37:04.849Z,102627.80
2019-04-14T02:42:24.404Z,102629.55
2019-04-14T02:47:48.860Z,102623.78
2019-04-14T02:52:19.945Z,102628.78
2019-04-14T02:54:59.572Z,102631.38
2019-04-14T03:00:03.350Z,102643.79
2019-04-14T03:05:02.521Z,102642.00
2019-04-14T03:07:37.873Z,102644.66
2019-04-14T03:10:12.546Z,102649.03
2019-04-14T03:12:54.579Z,102646.41
2019-04-14T03:15:28.017Z,102644.20
2019-04-14T03:18:16.494Z,102642.88
2019-04-14T03:20:55.623Z,102643.79
2019-04-14T03:23:40.674Z,102638.54
2019-04-14T03:26:27.079Z,102633.67
2019-04-14T03:29:08.194Z,102626.59
2019-04-14T03:34:34.545Z,102635.74
2019-04-14T03:39:26.063Z,102629.17
2019-04-14T03:42:01.038Z,102634.94
2019-04-14T03:47:05.516Z,102622.98
2019-04-14T03:49:37.405Z,102623.45
2019-04-14T03:52:03.719Z,102626.58
2019-04-14T03:54:35.673Z,102620.41
2019-04-14T03:56:53.635Z,102619.05
2019-04-14T03:59:26.135Z,102626.51
2019-04-14T04:01:58.581Z,102632.38
2019-04-14T04:04:33.662Z,102630.53
2019-04-14T04:07:06.213Z,102623.92
2019-04-14T04:09:45.464Z,102630.95
2019-04-14T04:12:18.162Z,102636.30
2019-04-14T04:14:50.974Z,102640.64
2019-04-14T04:17:38.843Z,102642.91
2019-04-14T04:20:22.329Z,102646.41
2019-04-14T04:23:09.608Z,102646.94
2019-04-14T04:25:59.537Z,102646.45
2019-04-14T04:29:05.422Z,102643.79
2019-04-14T04:31:48.247Z,102642.91
2019-04-14T04:34:42.331Z,102652.14
2019-04-14T04:37:34.126Z,102654.80
2019-04-14T04:40:15.706Z,102671.20
2019-04-14T04:42:48.289Z,102675.14
2019-04-14T04:45:19.741Z,102684.39
2019-04-14T04:47:53.662Z,102687.46
2019-04-14T04:50:25.998Z,102698.14
2019-04-14T04:52:58.290Z,102705.23
2019-04-14T04:55:30.609Z,102705.19
2019-04-14T04:58:01.934Z,102712.75
2019-04-14T05:00:33.287Z,102716.74
2019-04-14T05:03:05.760Z,102718.92
2019-04-14T05:06:13.344Z,102709.63
2019-04-14T05:08:50.278Z,102722.00
2019-04-14T05:11:33.686Z,102734.80
2019-04-14T05:14:13.066Z,102734.87
2019-04-14T05:16:44.174Z,102733.08
2019-04-14T05:19:24.752Z,102741.04
2019-04-14T05:21:49.513Z,102747.63
2019-04-14T05:24:22.246Z,102760.91
2019-04-14T05:26:54.803Z,102757.23
2019-04-14T05:29:27.540Z,102769.19
2019-04-14T05:32:00.063Z,102780.20
2019-04-14T05:34:32.638Z,102787.30
2019-04-14T05:37:05.289Z,102804.11
2019-04-14T05:39:39.632Z,102816.11
2019-04-14T05:42:14.898Z,102829.80
2019-04-14T05:44:44.788Z,102838.91
2019-04-14T05:47:17.514Z,102857.59
2019-04-14T05:49:54.969Z,102866.03
2019-04-14T05:52:25.570Z,102893.97
2019-04-14T05:54:57.943Z,102902.31
2019-04-14T05:57:29.145Z,102934.20
2019-04-14T06:00:01.644Z,102945.92
2019-04-14T06:02:36.113Z,102957.70
2019-04-14T06:05:09.217Z,102989.57
2019-04-14T06:07:41.176Z,103019.70
2019-04-14T06:10:13.538Z,103047.09
2019-04-14T06:12:44.778Z,103065.72
2019-04-14T06:15:19.507Z,103097.21
2019-04-14T06:17:50.842Z,103120.75
2019-04-14T06:20:22.161Z,103136.70
2019-04-14T06:22:53.425Z,103159.73
2019-04-14T06:25:25.268Z,103175.98
2019-04-14T06:27:56.565Z,103191.42
2019-04-14T06:30:48.423Z,103205.24
2019-04-14T06:33:32.213Z,103220.78
2019-04-14T06:36:25.168Z,103228.16
2019-04-14T06:39:11.437Z,103229.14
2019-04-14T06:41:42.651Z,103234.58
2019-04-14T06:44:13.943Z,103215.95
2019-04-14T06:46:46.006Z,103201.44
2019-04-14T06:49:17.487Z,103189.06
2019-04-14T06:51:50.428Z,103180.27
2019-04-14T06:54:22.355Z,103167.42
2019-04-14T06:56:53.854Z,103155.09
2019-04-14T06:59:27.059Z,103142.04
2019-04-14T07:02:01.518Z,103134.99
2019-04-14T07:04:31.416Z,103123.14
2019-04-14T07:07:05.888Z,103114.84
2019-04-14T07:09:39.304Z,103107.47
2019-04-14T07:12:11.390Z,103091.51
2019-04-14T07:14:43.015Z,103088.11
2019-04-14T07:17:15.855Z,103065.52
2019-04-14T07:20:01.398Z,103048.24
2019-04-14T07:22:23.124Z,103050.11
2019-04-14T07:24:54.895Z,103027.98
2019-04-14T07:27:27.198Z,103021.88
2019-04-14T07:30:04.794Z,103009.05
2019-04-14T07:33:06.248Z,103007.40
2019-04-14T07:35:53.187Z,102991.38
2019-04-14T07:38:46.515Z,102976.35
2019-04-14T07:41:42.752Z,102982.16
2019-04-14T07:44:32.009Z,102971.92
2019-04-14T07:47:16.396Z,102962.27
2019-04-14T07:49:57.625Z,102961.75
2019-04-14T07:52:38.172Z,102951.08
2019-04-14T07:55:34.553Z,102942.19
2019-04-14T07:58:43.122Z,102933.80
2019-04-14T08:01:20.625Z,102941.86
2019-04-14T08:04:16.240Z,102933.41
2019-04-14T08:07:18.581Z,102903.73
2019-04-14T08:09:50.614Z,102919.29
2019-04-14T08:12:22.658Z,102908.66
2019-04-14T08:14:55.844Z,102910.05
2019-04-14T08:17:27.178Z,102896.69
2019-04-14T08:19:58.622Z,102905.19
2019-04-14T08:22:30.188Z,102916.41
2019-04-14T08:25:01.944Z,102916.88
2019-04-14T08:27:34.474Z,102896.02
2019-04-14T08:30:08.043Z,102881.34
2019-04-14T08:32:40.137Z,102868.98
2019-04-14T08:35:11.783Z,102887.23
2019-04-14T08:37:43.350Z,102867.25
2019-04-14T08:40:14.957Z,102875.67
2019-04-14T08:43:12.180Z,102859.71
2019-04-14T08:45:51.996Z,102853.92
2019-04-14T08:48:35.741Z,102823.27
2019-04-14T08:51:29.074Z,102857.00
2019-04-14T08:54:09.043Z,102857.44
2019-04-14T08:56:59.089Z,102871.60
2019-04-14T08:59:49.328Z,102876.92
2019-04-14T09:02:40.524Z,102863.13
2019-04-14T09:05:30.416Z,102860.95
2019-04-14T09:08:38.536Z,102856.05
2019-04-14T09:11:10.029Z,102852.51
2019-04-14T09:13:42.091Z,102873.39
2019-04-14T09:16:14.291Z,102860.07
2019-04-14T09:18:45.795Z,102850.30
2019-04-14T09:21:18.354Z,102859.63
2019-04-14T09:23:49.915Z,102864.04
2019-04-14T09:26:21.329Z,102864.95
2019-04-14T09:28:53.522Z,102863.58
2019-04-14T09:31:24.938Z,102864.09
2019-04-14T09:33:56.162Z,102872.06
2019-04-14T09:36:27.500Z,102869.39
2019-04-14T09:38:58.924Z,102866.73
2019-04-14T09:41:30.923Z,102881.77
2019-04-14T09:44:02.703Z,102885.80
2019-04-14T09:46:34.357Z,102876.44
2019-04-14T09:49:06.598Z,102882.64
2019-04-14T09:51:38.224Z,102878.19
2019-04-14T09:54:09.557Z,102885.80
2019-04-14T09:56:41.039Z,102887.58
2019-04-14T09:59:12.392Z,102878.72
2019-04-14T10:01:43.781Z,102887.58
2019-04-14T10:04:16.938Z,102883.58
2019-04-14T10:06:48.665Z,102872.45
2019-04-14T10:09:20.099Z,102872.45
2019-04-14T10:11:56.042Z,102873.78
2019-04-14T10:14:24.681Z,102877.73
2019-04-14T10:17:01.534Z,102879.94
2019-04-14T10:19:33.168Z,102894.12
2019-04-14T10:22:04.871Z,102896.82
2019-04-14T10:24:36.182Z,102901.69
2019-04-14T10:27:08.823Z,102898.12
2019-04-14T10:29:40.421Z,102901.23
2019-04-14T10:32:11.769Z,102901.23
2019-04-14T10:34:43.147Z,102912.30
2019-04-14T10:37:15.079Z,102920.74
2019-04-14T10:39:46.420Z,102932.72
2019-04-14T10:42:18.245Z,102933.19
2019-04-14T10:44:49.874Z,102936.30
2019-04-14T10:47:21.450Z,102947.86
2019-04-14T10:49:52.780Z,102940.33
2019-04-14T10:52:24.091Z,102943.46
2019-04-14T10:54:55.369Z,102938.63
2019-04-14T10:57:27.010Z,102937.76
2019-04-14T10:59:58.374Z,102943.50
2019-04-14T11:02:30.275Z,102948.83
2019-04-14T11:05:01.809Z,102951.11
2019-04-14T11:07:33.855Z,102944.45
2019-04-14T11:10:07.430Z,102941.78
2019-04-14T11:12:41.879Z,102926.28
2019-04-14T11:15:15.494Z,102901.88
2019-04-14T11:17:49.023Z,102887.23
2019-04-14T11:20:21.129Z,102865.91
2019-04-14T11:23:03.286Z,102856.14
2019-04-14T11:25:27.100Z,102840.14
2019-04-14T11:27:58.714Z,102850.80
2019-04-14T11:30:31.023Z,102854.36
2019-04-14T11:33:11.493Z,102858.80
2019-04-14T11:36:05.546Z,102867.70
2019-04-14T11:38:40.887Z,102867.27
2019-04-14T11:41:15.701Z,102857.47
2019-04-14T11:43:47.347Z,102854.38
2019-04-14T11:46:18.922Z,102850.80
2019-04-14T11:48:51.266Z,102868.59
2019-04-14T11:51:24.284Z,102857.91
2019-04-14T11:53:55.865Z,102860.14
2019-04-14T11:56:27.530Z,102861.03
2019-04-14T11:58:58.919Z,102870.37
2019-04-14T12:01:49.575Z,102863.25
2019-04-14T12:04:25.313Z,102877.92
2019-04-14T12:07:05.467Z,102857.47
2019-04-14T12:10:01.965Z,102870.81
2019-04-14T12:12:33.438Z,102881.90
2019-04-14T12:15:07.601Z,102874.79
2019-04-14T12:20:06.528Z,102856.56
2019-04-14T12:22:37.858Z,102865.90
2019-04-14T12:25:09.519Z,102871.68
2019-04-14T12:27:41.980Z,102868.11
2019-04-14T12:30:14.025Z,102860.13
2019-04-14T12:32:45.582Z,102848.55
2019-04-14T12:35:19.079Z,102836.09
2019-04-14T12:37:51.739Z,102844.10
2019-04-14T12:40:24.175Z,102844.95
2019-04-14T12:43:17.842Z,102839.66
2019-04-14T12:46:12.360Z,102836.06
2019-04-14T12:49:00.121Z,102844.03
2019-04-14T12:51:38.006Z,102849.33
2019-04-14T12:54:09.434Z,102845.80
2019-04-14T12:57:47.942Z,102831.16
2019-04-14T13:00:26.839Z,102834.75
2019-04-14T13:02:59.874Z,102829.36
2019-04-14T13:05:31.392Z,102864.91
2019-04-14T13:08:05.443Z,102858.70
2019-04-14T13:10:37.300Z,102839.09
2019-04-14T13:13:08.930Z,102839.92
2019-04-14T13:15:51.694Z,102820.88
2019-04-14T13:18:23.551Z,102816.47
2019-04-14T13:20:55.980Z,102824.89
2019-04-14T13:23:30.704Z,102821.31
2019-04-14T13:26:02.609Z,102826.61
2019-04-14T13:28:34.751Z,102832.84
2019-04-14T13:31:06.878Z,102826.19
2019-04-14T13:33:39.694Z,102816.83
2019-04-14T13:36:14.517Z,102802.63
2019-04-14T13:38:46.356Z,102820.84
2019-04-14T13:41:19.406Z,102823.03
2019-04-14T13:43:54.510Z,102828.77
2019-04-14T13:46:35.559Z,102810.09
2019-04-14T13:49:27.383Z,102807.81
2019-04-14T13:52:02.930Z,102809.56
2019-04-14T13:54:35.399Z,102791.71
2019-04-14T13:57:10.948Z,102793.64
2019-04-14T13:59:42.803Z,102794.97
2019-04-14T14:02:14.796Z,102806.11
2019-04-14T14:04:46.938Z,102798.54
2019-04-14T14:07:21.502Z,102785.17
2019-04-14T14:09:53.432Z,102794.08
2019-04-14T14:12:46.013Z,102795.88
2019-04-14T14:15:41.414Z,102796.30
2019-04-14T14:18:57.542Z,102797.66
2019-04-14T14:22:07.949Z,102800.30
2019-04-14T14:24:51.274Z,102792.36
2019-04-14T14:27:32.616Z,102799.49
2019-04-14T14:30:05.351Z,102796.38
2019-04-14T14:32:37.906Z,102796.75
2019-04-14T14:35:10.166Z,102794.53
2019-04-14T14:37:42.010Z,102790.05
2019-04-14T14:40:13.808Z,102799.39
2019-04-14T14:42:45.723Z,102798.09
2019-04-14T14:45:37.756Z,102790.91
2019-04-14T14:48:21.237Z,102796.73
2019-04-14T14:50:57.247Z,102800.20
2019-04-14T14:53:30.838Z,102798.06
2019-04-14T14:56:03.144Z,102799.36
2019-04-14T14:58:35.731Z,102799.84
2019-04-14T15:01:09.566Z,102802.53
2019-04-14T15:03:42.112Z,102804.77
2019-04-14T15:06:15.286Z,102800.73
2019-04-14T15:08:47.360Z,102798.94
2019-04-14T15:11:21.198Z,102797.56
2019-04-14T15:13:53.459Z,102804.69
2019-04-14T15:16:25.867Z,102795.81
2019-04-14T15:18:57.325Z,102810.02
2019-04-14T15:21:30.574Z,102788.68
2019-04-14T15:24:04.071Z,102785.50
2019-04-14T15:26:36.065Z,102794.80
2019-04-14T15:29:08.886Z,102796.26
2019-04-14T15:31:40.584Z,102786.39
2019-04-14T15:34:12.425Z,102794.39
2019-04-14T15:36:45.810Z,102779.78
2019-04-14T15:39:17.190Z,102785.09
2019-04-14T15:41:49.146Z,102789.56
2019-04-14T15:44:21.683Z,102774.89
2019-04-14T15:46:53.223Z,102780.17
2019-04-14T15:49:24.837Z,102787.77
2019-04-14T15:51:59.781Z,102782.78
2019-04-14T15:54:33.548Z,102780.17
2019-04-14T15:57:17.880Z,102776.17
2019-04-14T16:00:07.481Z,102782.91
2019-04-14T16:03:02.155Z,102781.95
2019-04-14T16:05:53.624Z,102779.34
2019-04-14T16:08:50.872Z,102783.71
2019-04-14T16:11:35.896Z,102793.02
2019-04-14T16:14:26.422Z,102793.03
2019-04-14T16:17:21.875Z,102789.94
2019-04-14T16:20:02.276Z,102794.39
2019-04-14T16:22:35.670Z,102791.73
2019-04-14T16:25:07.600Z,102792.27
2019-04-14T16:28:04.533Z,102788.73
2019-04-14T16:30:49.098Z,102783.86
2019-04-14T16:33:26.049Z,102792.78
2019-04-14T16:35:58.600Z,102800.39
2019-04-14T16:38:33.853Z,102799.05
2019-04-14T16:41:05.942Z,102807.48
2019-04-14T16:43:37.747Z,102804.88
2019-04-14T16:46:09.376Z,102801.70
2019-04-14T16:48:41.032Z,102791.50
2019-04-14T16:51:17.729Z,102801.72
2019-04-14T16:53:49.559Z,102803.95
2019-04-14T16:56:38.867Z,102803.08
2019-04-14T16:59:15.165Z,102806.66
2019-04-14T17:01:48.491Z,102800.42
2019-04-14T17:04:20.150Z,102805.34
2019-04-14T17:06:51.929Z,102812.91
2019-04-14T17:09:24.324Z,102809.79
2019-04-14T17:11:59.240Z,102811.19
2019-04-14T17:14:52.959Z,102809.42
2019-04-14T17:17:43.550Z,102795.63
2019-04-14T17:20:41.626Z,102820.13
2019-04-14T17:23:31.947Z,102823.20
2019-04-14T17:26:14.267Z,102819.18
2019-04-14T17:29:20.877Z,102824.11
2019-04-14T17:32:19.170Z,102812.55
2019-04-14T17:35:10.614Z,102822.79
2019-04-14T17:37:51.060Z,102815.24
2019-04-14T17:40:43.370Z,102825.00
2019-04-14T17:43:28.237Z,102819.67
2019-04-14T17:46:11.824Z,102825.92
2019-04-14T17:49:01.726Z,102829.05
2019-04-14T17:51:38.298Z,102828.14
2019-04-14T17:54:29.741Z,102843.27
2019-04-14T17:57:33.124Z,102834.36
2019-04-14T18:00:28.359Z,102846.83
2019-04-14T18:03:04.125Z,102850.37
2019-04-14T18:05:48.338Z,102850.81
2019-04-14T18:08:39.865Z,102848.58
2019-04-14T18:11:20.531Z,102857.02
2019-04-14T18:14:18.722Z,102866.34
2019-04-14T18:17:09.909Z,102857.03
2019-04-14T18:19:55.312Z,102870.78
2019-04-14T18:22:29.480Z,102873.47
2019-04-14T18:25:01.024Z,102867.70
2019-04-14T18:27:35.634Z,102879.23
2019-04-14T18:30:19.384Z,102881.48
2019-04-14T18:33:03.528Z,102892.58
2019-04-14T18:36:03.106Z,102888.55
2019-04-14T18:38:59.682Z,102885.89
2019-04-14T18:41:47.860Z,102885.03
2019-04-14T18:44:30.061Z,102895.23
2019-04-14T18:47:26.349Z,102894.77
2019-04-14T18:50:02.850Z,102889.45
2019-04-14T18:52:52.091Z,102892.09
2019-04-14T18:55:41.356Z,102902.30
2019-04-14T18:58:34.008Z,102893.86
2019-04-14T19:01:17.392Z,102901.88
2019-04-14T19:03:49.946Z,102906.33
2019-04-14T19:06:21.824Z,102908.98
2019-04-14T19:08:53.822Z,102892.13
2019-04-14T19:11:46.937Z,102909.44
2019-04-14T19:14:25.464Z,102912.11
2019-04-14T19:17:00.394Z,102922.31
2019-04-14T19:19:33.624Z,102917.00
2019-04-14T19:22:05.263Z,102920.52
2019-04-14T19:24:36.865Z,102924.06
2019-04-14T19:27:11.083Z,102924.09
2019-04-14T19:29:42.501Z,102928.52
2019-04-14T19:32:17.086Z,102932.09
2019-04-14T19:34:48.325Z,102931.64
2019-04-14T19:37:20.028Z,102928.49
2019-04-14T19:39:51.247Z,102941.81
2019-04-14T19:42:23.575Z,102937.81
2019-04-14T19:44:56.532Z,102936.97
2019-04-14T19:47:29.144Z,102936.52
2019-04-14T19:50:03.391Z,102952.50
2019-04-14T19:52:35.375Z,102954.25
2019-04-14T19:55:19.509Z,102954.69
2019-04-14T19:57:41.216Z,102965.37
2019-04-14T20:00:14.044Z,102969.82
2019-04-14T20:02:45.455Z,102977.78
2019-04-14T20:05:20.052Z,102976.88
2019-04-14T20:07:51.863Z,102984.83
2019-04-14T20:10:32.675Z,102994.59
2019-04-14T20:13:04.293Z,102997.27
2019-04-14T20:15:55.567Z,103003.92
2019-04-14T20:18:55.897Z,103010.13
2019-04-14T20:21:48.188Z,102999.89
2019-04-14T20:24:39.862Z,102999.47
2019-04-14T20:27:33.426Z,103006.55
2019-04-14T20:30:37.022Z,102995.42
2019-04-14T20:33:09.655Z,103000.75
2019-04-14T20:35:41.857Z,102994.55
2019-04-14T20:38:13.400Z,103006.03
2019-04-14T20:40:44.718Z,103006.48
2019-04-14T20:43:17.501Z,103000.30
2019-04-14T20:45:51.639Z,103009.62
2019-04-14T20:48:22.863Z,103005.20
2019-04-14T20:50:54.166Z,103008.23
2019-04-14T20:53:26.027Z,103014.88
2019-04-14T20:56:04.125Z,103008.69
2019-04-14T20:58:35.520Z,103007.36
2019-04-14T21:01:08.519Z,103011.30
2019-04-14T21:04:00.035Z,103016.63
2019-04-14T21:06:56.160Z,103021.53
2019-04-14T21:09:49.888Z,103024.66
2019-04-14T21:12:40.454Z,103031.25
2019-04-14T21:15:24.961Z,103038.84
2019-04-14T21:18:18.106Z,103035.66
2019-04-14T21:20:56.097Z,103033.91
2019-04-14T21:23:38.454Z,103042.78
2019-04-14T21:26:21.734Z,103042.38
2019-04-14T21:29:03.523Z,103039.72
2019-04-14T21:31:52.189Z,103035.25
2019-04-14T21:34:41.519Z,103031.64
2019-04-14T21:37:22.564Z,103041.38
2019-04-14T21:40:21.716Z,103041.42
2019-04-14T21:42:52.919Z,103050.75
2019-04-14T21:45:26.158Z,103041.98
2019-04-14T21:47:57.478Z,103048.16
2019-04-14T21:50:28.703Z,103033.58
2019-04-14T21:52:59.978Z,103040.63
2019-04-14T21:55:31.297Z,103033.45
2019-04-14T21:58:32.877Z,103042.72
2019-04-14T22:01:50.559Z,103056.93
2019-04-14T22:04:46.303Z,103055.55
2019-04-14T22:07:33.623Z,103061.74
2019-04-14T22:10:32.158Z,103060.95
2019-04-14T22:13:06.500Z,103068.53
2019-04-14T22:15:39.388Z,103061.93
2019-04-14T22:18:11.796Z,103062.75
2019-04-14T22:20:43.584Z,103065.41
2019-04-14T22:23:14.936Z,103067.59
2019-04-14T22:25:46.141Z,103066.33
2019-04-14T22:28:17.422Z,103063.21
2019-04-14T22:30:49.883Z,103060.94
2019-04-14T22:33:21.172Z,103066.27
2019-04-14T22:35:52.381Z,103065.86
2019-04-14T22:38:23.626Z,103069.86
2019-04-14T22:40:54.909Z,103076.06
2019-04-14T22:43:26.134Z,103071.59
2019-04-14T22:48:13.356Z,103077.37
2019-04-14T22:50:45.006Z,103077.36
2019-04-14T22:53:16.573Z,103076.44
2019-04-14T22:55:47.948Z,103084.89
2019-04-14T22:58:19.128Z,103086.29
2019-04-14T23:01:16.267Z,103079.64
2019-04-14T23:03:57.911Z,103078.30
2019-04-14T23:06:48.056Z,103085.75
2019-04-14T23:09:26.986Z,103095.01
2019-04-14T23:12:14.831Z,103086.20
2019-04-14T23:14:54.344Z,103096.81
2019-04-14T23:17:42.655Z,103096.80
2019-04-14T23:20:37.397Z,103094.14
2019-04-14T23:23:28.992Z,103099.30
2019-04-14T23:26:00.193Z,103107.28
2019-04-14T23:28:31.538Z,103103.83
2019-04-14T23:31:02.782Z,103103.91
2019-04-14T23:33:34.086Z,103105.61
2019-04-14T23:36:06.417Z,103107.34
2019-04-14T23:38:41.716Z,103105.14
2019-04-14T23:41:12.922Z,103108.70
2019-04-14T23:43:46.996Z,103099.87
2019-04-14T23:46:18.492Z,103095.76
2019-04-14T23:48:51.062Z,103099.78
2019-04-14T23:51:22.385Z,103105.07
2019-04-14T23:53:54.492Z,103102.98
2019-04-14T23:56:29.338Z,103107.45
2019-04-14T23:59:00.607Z,103102.52
